^^
Station Historical Data
Daily Summary for September 6, 2017 Units:  Metric    English   Both
« Previous Day
Next Day »
Daily Weekly Monthly Yearly Custom
  High: Low: Average:
Temperature: 20.8 °C 9.8 °C 13.5 °C
Dew Point: 7.6 °C 3.5 °C 5.8 °C
Humidity: 84% 36% 63%
Wind Speed: 13km/h 0km/h 2.1km/h
Wind Gust: 13km/h - -
Wind- - SSW
Pressure: 1017.5 hPa 1016.1 hPa -
Precipitation: 0 mm    
Historical Graphs
 
 
Tabular Data for September 6, 2017
Time Temperature Dew Point Pressure Wind Wind Speed Wind Gust Humidity Rainfall Rate (Hourly) solar Conditions
00:04 10.2 °C 7.4 °C 1016.8 hPa SSW 6.4 km/h 6.4 km/h 83% 0 mm 0.0 W/m2
00:14 10.1 °C 7.3 °C 1016.8 hPa Calm     83% 0 mm 0.0 W/m2
00:19 10.1 °C 7.5 °C 1016.8 hPa Calm     84% 0 mm 0.0 W/m2
00:25 10.1 °C 7.5 °C 1017.2 hPa Calm     84% 0 mm 0.0 W/m2
00:30 10.2 °C 7.6 °C 1016.8 hPa Calm     84% 0 mm 0.0 W/m2
00:35 10.2 °C 7.6 °C 1017.2 hPa Calm     84% 0 mm 0.0 W/m2
00:40 10.2 °C 7.6 °C 1017.2 hPa Calm     84% 0 mm 0.0 W/m2
00:46 10.1 °C 7.5 °C 1016.8 hPa Calm     84% 0 mm 0.0 W/m2
00:51 10.1 °C 7.5 °C 1017.2 hPa Calm     84% 0 mm 0.0 W/m2
00:56 10.1 °C 7.5 °C 1017.2 hPa Calm     84% 0 mm 0.0 W/m2
01:01 10 °C 7.4 °C 1017.2 hPa Calm     84% 0 mm 0.0 W/m2
01:11 10 °C 7.4 °C 1017.2 hPa Calm     84% 0 mm 0.0 W/m2
01:21 10 °C 7.2 °C 1017.2 hPa Calm     83% 0 mm 0.0 W/m2
01:26 9.9 °C 7.1 °C 1017.2 hPa Calm     83% 0 mm 0.0 W/m2
01:32 9.8 °C 7.1 °C 1017.2 hPa Calm     83% 0 mm 0.0 W/m2
18:57 20.8 °C 5.2 °C 1016.1 hPa SSW 11.1 km/h 12.9 km/h 36% 0 mm 0.0 W/m2
19:20 19.9 °C 5.2 °C 1016.1 hPa SSW 9.7 km/h 12.9 km/h 38% 0 mm 0.0 W/m2
19:32 19.5 °C 5.2 °C 1016.1 hPa SSW 6.4 km/h 9.7 km/h 39% 0 mm 0.0 W/m2
19:42 19.2 °C 5.3 °C 1016.1 hPa SSW 7.9 km/h 8 km/h 40% 0 mm 0.0 W/m2
20:45 16.9 °C 4.2 °C 1016.5 hPa Calm     43% 0 mm 0.0 W/m2
20:58 16.4 °C 4.1 °C 1016.5 hPa Calm     44% 0 mm 0.0 W/m2
21:04 15.9 °C 3.7 °C 1016.8 hPa Calm     44% 0 mm 0.0 W/m2
21:15 15.6 °C 4 °C 1016.8 hPa Calm     46% 0 mm 0.0 W/m2
21:52 15.2 °C 4.3 °C 1017.2 hPa Calm     48% 0 mm 0.0 W/m2
22:08 15.6 °C 4 °C 1017.2 hPa Calm     46% 0 mm 0.0 W/m2
22:18 15.4 °C 3.8 °C 1017.2 hPa Calm     46% 0 mm 0.0 W/m2
22:23 15.3 °C 3.7 °C 1017.2 hPa Calm     46% 0 mm 0.0 W/m2
22:27 15 °C 3.5 °C 1017.2 hPa Calm     46% 0 mm 0.0 W/m2
22:33 14.8 °C 3.6 °C 1017.5 hPa Calm     47% 0 mm 0.0 W/m2
22:39 15 °C 4.4 °C 1017.5 hPa SSW 13 km/h 13 km/h 49% 0 mm 0.0 W/m2
22:49 15.2 °C 5.1 °C 1017.5 hPa SSW 7.9 km/h 11.3 km/h 51% 0 mm 0.0 W/m2
22:58 15.1 °C 5 °C 1017.5 hPa SSW 6.4 km/h 11.3 km/h 51% 0 mm 0.0 W/m2
Canyon Roadhouse, Fishriver Canyon, Namibia
Compliments of Weather Underground - 1.75 mb